Terminal Aerodrome Forecast
Issued by NWS

Home | Current Version | Previous Version | Graphics & Text | Print | Product List | Glossary On
Versions: 1 2 3 4 5 6 7 8 9 10 11 12 13 14
000
FTUS43 KMPX 121140
TAFAXN
TAF
KAXN 121140Z 1212/1312 26008KT P6SM SCT015 OVC050
      TEMPO 1212/1215 BKN015
     FM121500 20008KT P6SM OVC015
     FM122000 19009KT P6SM BKN022
     FM122200 18008KT P6SM SCT070
     FM130700 24009KT P6SM OVC012
     FM131000 31015G24KT P6SM VCSH OVC008=

USA.gov is the U.S. government's official web portal to all federal, state and local government web resources and services.